Capitol Logistics 7442

Operating for MZN



KTPA
Tampa International Airport
Tampa, Florida
KRIC
Richmond International Airport
Richmond, Virginia

Activity Log

Date Flight Route Aircraft Duration
05/05/2021 CPX7442 BAYPO9 CAMJO Q99 POLYY TUBAS J52 ZITTO NEAVL DUCXS5 B752 1h 50m
04/13/2021 CPX7442 BAYPO8 CAMJO Q99 TEEEM Q75 GSO J14 CREWE NEAVL DUCXS5 B738 1h 54m

Route Details

Aircraft Information
Primary: Boeing 737-800BCF
Backup: Boeing 757-200SF
Route Data
Distance: 619nm
Duration: 1h 34m
Recm'd Route: BAYPO8 CAMJO Q99 TEEEM Q75 GSO J14 CREWE NEAVL DUCXS5
Origin Wx: KTPA 020653Z 25005KT 10SM CLR 29/25 A3004 RMK AO2 SLP171 T02940250
Dest. Wx: KRIC 020654Z 34009KT 10SM FEW040 21/19 A2990 RMK AO2 RAE0558 SLP129 P0000 T02110189
Notes: